createdAt,value
2018-06-10T00:00:53.786Z,34.73
2018-06-10T00:03:22.212Z,26.57
2018-06-10T00:05:50.591Z,26.60
2018-06-10T00:08:19.004Z,27.40
2018-06-10T00:10:47.576Z,26.60
2018-06-10T00:13:15.651Z,28.37
2018-06-10T00:15:44.082Z,24.33
2018-06-10T00:18:13.777Z,28.67
2018-06-10T00:20:42.302Z,29.63
2018-06-10T00:23:10.736Z,27.70
2018-06-10T00:25:39.237Z,28.10
2018-06-10T00:28:07.881Z,30.90
2018-06-10T00:30:36.370Z,25.30
2018-06-10T00:33:04.981Z,24.10
2018-06-10T00:35:33.490Z,28.77
2018-06-10T00:38:01.960Z,28.20
2018-06-10T00:40:30.340Z,25.17
2018-06-10T00:42:58.741Z,24.33
2018-06-10T00:45:27.162Z,24.60
2018-06-10T00:47:55.573Z,28.93
2018-06-10T00:50:23.963Z,26.70
2018-06-10T00:52:52.497Z,28.10
2018-06-10T00:55:21.112Z,27.37
2018-06-10T00:57:49.500Z,27.93
2018-06-10T01:00:18.080Z,27.10
2018-06-10T01:02:46.591Z,32.00
2018-06-10T01:05:15.006Z,28.67
2018-06-10T01:07:43.405Z,30.33
2018-06-10T01:10:11.824Z,35.67
2018-06-10T01:12:40.213Z,26.93
2018-06-10T01:15:08.617Z,52.37
2018-06-10T01:17:37.017Z,67.60
2018-06-10T01:20:05.512Z,70.73
2018-06-10T01:22:34.108Z,70.90
2018-06-10T01:25:02.486Z,63.40
2018-06-10T01:27:30.910Z,65.87
2018-06-10T01:29:59.325Z,67.40
2018-06-10T01:32:27.730Z,66.30
2018-06-10T01:34:56.128Z,62.13
2018-06-10T01:37:24.516Z,68.73
2018-06-10T01:39:53.120Z,63.13
2018-06-10T01:42:21.504Z,61.03
2018-06-10T01:44:49.876Z,57.40
2018-06-10T01:47:18.264Z,56.23
2018-06-10T01:49:46.744Z,54.70
2018-06-10T01:52:15.117Z,58.50
2018-06-10T01:54:43.526Z,57.03
2018-06-10T01:57:11.912Z,57.10
2018-06-10T01:59:40.301Z,60.43
2018-06-10T02:02:08.688Z,61.57
2018-06-10T02:04:37.116Z,67.03
2018-06-10T02:07:05.836Z,67.87
2018-06-10T02:09:34.343Z,66.77
2018-06-10T02:12:02.801Z,74.70
2018-06-10T02:14:31.218Z,81.00
2018-06-10T02:16:59.607Z,86.13
2018-06-10T02:19:28.221Z,78.50
2018-06-10T02:21:56.731Z,90.40
2018-06-10T02:24:25.121Z,84.77
2018-06-10T02:26:53.495Z,80.47
2018-06-10T02:29:21.903Z,75.87
2018-06-10T02:31:50.305Z,82.53
2018-06-10T02:34:18.692Z,80.47
2018-06-10T02:36:47.113Z,75.73
2018-06-10T02:39:15.485Z,79.60
2018-06-10T02:41:44.021Z,76.93
2018-06-10T02:44:12.472Z,75.80
2018-06-10T02:46:40.853Z,83.93
2018-06-10T02:49:09.244Z,76.20
2018-06-10T02:51:37.856Z,80.80
2018-06-10T02:54:06.268Z,81.33
2018-06-10T02:56:34.404Z,79.83
2018-06-10T02:59:02.984Z,81.97
2018-06-10T03:01:31.363Z,86.17
2018-06-10T03:03:59.760Z,87.03
2018-06-10T03:06:28.438Z,85.13
2018-06-10T03:08:56.828Z,70.77
2018-06-10T03:11:25.217Z,81.70
2018-06-10T03:13:53.877Z,73.53
2018-06-10T03:16:22.272Z,82.87
2018-06-10T03:18:50.665Z,76.43
2018-06-10T03:21:19.065Z,88.90
2018-06-10T03:23:47.448Z,94.07
2018-06-10T03:26:15.832Z,83.90
2018-06-10T03:28:44.232Z,79.07
2018-06-10T03:31:12.620Z,66.10
2018-06-10T03:33:41.037Z,62.13
2018-06-10T03:36:09.447Z,49.50
2018-06-10T03:38:37.943Z,40.37
2018-06-10T03:41:06.540Z,44.13
2018-06-10T03:43:34.922Z,35.53
2018-06-10T03:46:03.337Z,36.70
2018-06-10T03:48:31.942Z,37.93
2018-06-10T03:51:00.320Z,36.97
2018-06-10T03:53:28.700Z,34.87
2018-06-10T03:55:57.208Z,38.07
2018-06-10T03:58:25.603Z,35.77
2018-06-10T04:00:53.984Z,33.43
2018-06-10T04:03:22.393Z,37.80
2018-06-10T04:05:50.782Z,33.40
2018-06-10T04:08:19.280Z,33.30
2018-06-10T04:10:47.664Z,38.50
2018-06-10T04:13:16.221Z,41.53
2018-06-10T04:15:44.960Z,34.53
2018-06-10T04:18:13.487Z,34.00
2018-06-10T04:20:41.992Z,34.47
2018-06-10T04:23:10.708Z,34.93
2018-06-10T04:25:39.081Z,32.90
2018-06-10T04:28:07.474Z,35.27
2018-06-10T04:30:36.040Z,34.77
2018-06-10T04:33:04.447Z,31.50
2018-06-10T04:35:32.831Z,36.17
2018-06-10T04:38:00.928Z,35.83
2018-06-10T04:40:29.416Z,35.27
2018-06-10T04:42:57.816Z,37.80
2018-06-10T04:45:26.216Z,37.37
2018-06-10T04:47:54.604Z,35.50
2018-06-10T04:50:22.992Z,42.20
2018-06-10T04:52:51.063Z,40.07
2018-06-10T04:55:19.464Z,39.17
2018-06-10T04:57:47.852Z,36.50
2018-06-10T05:00:16.269Z,44.00
2018-06-10T05:02:44.641Z,34.33
2018-06-10T05:05:13.024Z,37.83
2018-06-10T05:07:41.436Z,35.50
2018-06-10T05:10:09.836Z,37.73
2018-06-10T05:12:38.209Z,35.27
2018-06-10T05:15:06.908Z,37.77
2018-06-10T05:17:35.332Z,37.47
2018-06-10T05:20:03.861Z,32.50
2018-06-10T05:22:32.389Z,39.70
2018-06-10T05:25:00.768Z,35.67
2018-06-10T05:27:29.181Z,30.30
2018-06-10T05:29:57.596Z,28.10
2018-06-10T05:32:26.013Z,33.00
2018-06-10T05:34:54.164Z,33.00
2018-06-10T05:37:22.605Z,40.33
2018-06-10T05:39:51.015Z,31.53
2018-06-10T05:42:19.404Z,36.53
2018-06-10T05:44:47.813Z,37.97
2018-06-10T05:47:16.216Z,31.50
2018-06-10T05:49:44.755Z,29.97
2018-06-10T05:52:13.161Z,31.70
2018-06-10T05:54:41.586Z,36.70
2018-06-10T05:57:10.017Z,32.23
2018-06-10T05:59:38.420Z,37.27
2018-06-10T06:02:06.809Z,31.47
2018-06-10T06:04:35.433Z,34.27
2018-06-10T06:07:03.857Z,40.80
2018-06-10T06:09:32.265Z,38.13
2018-06-10T06:12:00.667Z,35.00
2018-06-10T06:14:29.062Z,40.70
2018-06-10T06:16:57.569Z,35.77
2018-06-10T06:19:25.999Z,42.87
2018-06-10T06:21:54.592Z,38.30
2018-06-10T06:24:22.996Z,54.57
2018-06-10T06:26:51.408Z,54.43
2018-06-10T06:29:19.806Z,46.10
2018-06-10T06:31:48.404Z,53.80
2018-06-10T06:34:16.785Z,48.93
2018-06-10T06:36:45.160Z,53.20
2018-06-10T06:39:13.577Z,55.23
2018-06-10T06:41:41.984Z,60.03
2018-06-10T06:44:10.380Z,67.50
2018-06-10T06:46:38.790Z,60.13
2018-06-10T06:49:07.181Z,58.50
2018-06-10T06:51:35.591Z,66.43
2018-06-10T06:54:04.046Z,65.87
2018-06-10T06:56:32.448Z,63.53
2018-06-10T06:59:00.821Z,65.20
2018-06-10T07:01:29.450Z,64.30
2018-06-10T07:03:57.866Z,61.97
2018-06-10T07:06:26.384Z,71.00
2018-06-10T07:08:54.824Z,68.73
2018-06-10T07:11:23.235Z,60.83
2018-06-10T07:13:51.652Z,67.87
2018-06-10T07:16:20.049Z,67.03
2018-06-10T07:18:48.572Z,66.13
2018-06-10T07:21:16.980Z,61.77
2018-06-10T07:23:45.447Z,69.17
2018-06-10T07:26:13.799Z,65.00
2018-06-10T07:28:42.245Z,61.93
2018-06-10T07:31:10.684Z,65.77
2018-06-10T07:33:39.073Z,73.07
2018-06-10T07:36:07.660Z,66.30
2018-06-10T07:38:36.054Z,69.80
2018-06-10T07:41:04.430Z,71.87
2018-06-10T07:43:32.553Z,70.30
2018-06-10T07:46:00.977Z,75.33
2018-06-10T07:48:29.514Z,64.40
2018-06-10T07:50:57.869Z,57.20
2018-06-10T07:53:26.271Z,51.90
2018-06-10T07:55:54.672Z,54.00
2018-06-10T07:58:24.016Z,54.43
2018-06-10T08:00:52.520Z,58.73
2018-06-10T08:03:20.988Z,57.90
2018-06-10T08:05:49.392Z,51.90
2018-06-10T08:08:17.804Z,49.20
2018-06-10T08:10:46.881Z,49.67
2018-06-10T08:13:15.281Z,50.40
2018-06-10T08:15:43.670Z,49.67
2018-06-10T08:18:12.337Z,44.90
2018-06-10T08:20:40.735Z,51.70
2018-06-10T08:23:08.972Z,38.53
2018-06-10T08:25:37.385Z,50.27
2018-06-10T08:28:05.776Z,43.97
2018-06-10T08:30:34.169Z,46.37
2018-06-10T08:33:02.580Z,39.37
2018-06-10T08:35:31.036Z,43.10
2018-06-10T08:37:59.429Z,48.87
2018-06-10T08:40:27.859Z,46.30
2018-06-10T08:42:56.271Z,37.27
2018-06-10T08:45:24.693Z,39.80
2018-06-10T08:47:53.099Z,46.93
2018-06-10T08:50:21.568Z,48.20
2018-06-10T08:52:50.041Z,42.77
2018-06-10T08:55:18.493Z,41.53
2018-06-10T08:57:46.913Z,38.10
2018-06-10T09:00:15.691Z,39.70
2018-06-10T09:02:44.170Z,40.00
2018-06-10T09:05:12.522Z,42.53
2018-06-10T09:07:41.230Z,46.40
2018-06-10T09:10:09.688Z,44.13
2018-06-10T09:12:38.076Z,41.70
2018-06-10T09:15:06.672Z,38.30
2018-06-10T09:17:35.058Z,34.13
2018-06-10T09:20:03.203Z,33.97
2018-06-10T09:22:31.636Z,35.43
2018-06-10T09:25:00.049Z,34.00
2018-06-10T09:27:28.553Z,29.87
2018-06-10T09:29:56.977Z,33.03
2018-06-10T09:32:25.354Z,33.77
2018-06-10T09:34:53.996Z,26.17
2018-06-10T09:37:22.421Z,31.93
2018-06-10T09:39:50.844Z,29.53
2018-06-10T09:42:19.433Z,30.13
2018-06-10T09:44:47.852Z,29.20
2018-06-10T09:47:16.224Z,29.33
2018-06-10T09:49:44.879Z,26.17
2018-06-10T09:52:13.316Z,26.60
2018-06-10T09:54:41.753Z,24.70
2018-06-10T09:57:10.264Z,25.67
2018-06-10T09:59:38.681Z,29.43
2018-06-10T10:02:07.094Z,26.80
2018-06-10T10:04:35.517Z,27.30
2018-06-10T10:07:03.904Z,25.27
2018-06-10T10:09:32.313Z,22.97
2018-06-10T10:12:00.898Z,20.97
2018-06-10T10:14:29.336Z,22.00
2018-06-10T10:16:57.753Z,22.70
2018-06-10T10:19:26.277Z,22.20
2018-06-10T10:21:54.668Z,20.90
2018-06-10T10:24:23.081Z,23.90
2018-06-10T10:26:51.577Z,28.90
2018-06-10T10:29:20.061Z,27.30
2018-06-10T10:31:48.571Z,21.70
2018-06-10T10:34:17.547Z,26.07
2018-06-10T10:36:46.017Z,27.77
2018-06-10T10:39:14.413Z,26.93
2018-06-10T10:41:42.848Z,25.03
2018-06-10T10:44:11.264Z,23.10
2018-06-10T10:46:39.674Z,26.60
2018-06-10T10:49:08.074Z,28.17
2018-06-10T10:51:39.016Z,24.63
2018-06-10T10:54:09.898Z,20.67
2018-06-10T10:56:38.612Z,20.67
2018-06-10T10:59:07.104Z,20.17
2018-06-10T11:01:35.617Z,21.40
2018-06-10T11:04:04.044Z,20.50
2018-06-10T11:06:32.516Z,21.20
2018-06-10T11:09:00.950Z,20.63
2018-06-10T11:11:32.567Z,19.57
2018-06-10T11:14:01.206Z,24.30
2018-06-10T11:16:29.344Z,20.40
2018-06-10T11:18:57.729Z,23.37
2018-06-10T11:21:27.657Z,19.70
2018-06-10T11:23:56.166Z,19.40
2018-06-10T11:26:24.832Z,26.10
2018-06-10T11:28:53.340Z,22.57
2018-06-10T11:31:21.760Z,25.20
2018-06-10T11:33:50.443Z,21.20
2018-06-10T11:36:18.922Z,24.47
2018-06-10T11:38:47.317Z,23.70
2018-06-10T11:41:17.381Z,20.40
2018-06-10T11:43:45.975Z,22.93
2018-06-10T11:46:14.417Z,20.97
2018-06-10T11:48:42.928Z,23.63
2018-06-10T11:51:11.416Z,22.40
2018-06-10T11:53:39.881Z,24.10
2018-06-10T11:56:08.396Z,20.87
2018-06-10T11:58:36.805Z,19.93
2018-06-10T12:01:05.388Z,21.20
2018-06-10T12:03:33.812Z,23.37
2018-06-10T12:06:02.300Z,21.23
2018-06-10T12:08:30.734Z,25.23
2018-06-10T12:11:05.061Z,24.80
2018-06-10T12:13:33.793Z,24.00
2018-06-10T12:16:02.238Z,25.60
2018-06-10T12:18:30.753Z,19.80
2018-06-10T12:20:59.140Z,20.83
2018-06-10T12:23:27.624Z,18.43
2018-06-10T12:25:56.952Z,20.33
2018-06-10T12:28:25.372Z,21.83
2018-06-10T12:30:53.913Z,23.03
2018-06-10T12:33:22.594Z,20.70
2018-06-10T12:35:51.129Z,19.80
2018-06-10T12:38:19.653Z,18.67
2018-06-10T12:40:48.100Z,18.47
2018-06-10T12:43:16.531Z,22.20
2018-06-10T12:45:44.930Z,20.90
2018-06-10T12:48:13.469Z,17.53
2018-06-10T12:50:41.894Z,17.13
2018-06-10T12:53:10.321Z,18.77
2018-06-10T12:55:38.769Z,20.73
2018-06-10T12:58:07.177Z,19.57
2018-06-10T13:00:35.680Z,19.57
2018-06-10T13:03:04.269Z,16.70
2018-06-10T13:05:32.721Z,16.90
2018-06-10T13:08:01.166Z,18.60
2018-06-10T13:10:29.787Z,18.10
2018-06-10T13:12:58.220Z,17.60
2018-06-10T13:15:26.670Z,17.00
2018-06-10T13:17:55.108Z,20.93
2018-06-10T13:20:23.529Z,20.80
2018-06-10T13:22:51.985Z,16.17
2018-06-10T13:25:20.372Z,16.20
2018-06-10T13:27:48.768Z,15.73
2018-06-10T13:30:17.057Z,17.97
2018-06-10T13:32:45.156Z,19.37
2018-06-10T13:35:13.605Z,16.83
2018-06-10T13:37:42.052Z,21.33
2018-06-10T13:40:10.468Z,17.10
2018-06-10T13:42:38.885Z,18.03
2018-06-10T13:45:07.425Z,15.77
2018-06-10T13:47:35.852Z,16.70
2018-06-10T13:50:04.408Z,17.40
2018-06-10T13:52:32.874Z,18.07
2018-06-10T13:55:01.356Z,14.40
2018-06-10T13:57:29.800Z,18.97
2018-06-10T13:59:58.336Z,17.30
2018-06-10T14:02:26.761Z,19.40
2018-06-10T14:04:55.244Z,19.80
2018-06-10T14:07:23.345Z,18.23
2018-06-10T14:09:51.781Z,15.33
2018-06-10T14:12:20.234Z,15.57
2018-06-10T14:14:48.718Z,15.13
2018-06-10T14:17:17.129Z,16.27
2018-06-10T14:19:45.575Z,17.10
2018-06-10T14:22:14.021Z,16.10
2018-06-10T14:24:42.481Z,14.50
2018-06-10T14:27:10.901Z,17.20
2018-06-10T14:29:39.348Z,21.13
2018-06-10T14:32:07.556Z,14.80
2018-06-10T14:34:35.982Z,15.90
2018-06-10T14:37:07.573Z,15.93
2018-06-10T14:39:43.147Z,17.53
2018-06-10T14:42:11.758Z,13.63
2018-06-10T14:44:40.209Z,16.83
2018-06-10T14:47:08.644Z,17.20
2018-06-10T14:49:37.115Z,15.00
2018-06-10T14:52:05.721Z,16.60
2018-06-10T14:54:34.233Z,22.43
2018-06-10T14:57:02.797Z,16.80
2018-06-10T14:59:31.206Z,15.27
2018-06-10T15:01:59.629Z,15.60
2018-06-10T15:04:28.867Z,16.47
2018-06-10T15:06:57.281Z,13.77
2018-06-10T15:09:25.734Z,14.57
2018-06-10T15:11:54.234Z,14.57
2018-06-10T15:14:22.832Z,15.47
2018-06-10T15:16:51.268Z,17.93
2018-06-10T15:19:19.724Z,14.30
2018-06-10T15:21:48.161Z,15.20
2018-06-10T15:24:16.601Z,12.90
2018-06-10T15:26:45.059Z,17.60
2018-06-10T15:29:13.466Z,16.17
2018-06-10T15:31:42.083Z,15.60
2018-06-10T15:34:10.494Z,12.40
2018-06-10T15:36:38.924Z,11.43
2018-06-10T15:39:08.773Z,17.87
2018-06-10T15:41:37.208Z,14.13
2018-06-10T15:44:05.948Z,16.30
2018-06-10T15:46:34.455Z,15.13
2018-06-10T15:49:02.960Z,15.50
2018-06-10T15:51:31.385Z,14.50
2018-06-10T15:53:59.835Z,13.70
2018-06-10T15:56:28.372Z,17.40
2018-06-10T15:58:56.802Z,13.87
2018-06-10T16:01:25.246Z,13.17
2018-06-10T16:03:53.808Z,18.97
2018-06-10T16:06:22.237Z,15.97
2018-06-10T16:08:50.650Z,15.77
2018-06-10T16:11:19.188Z,14.40
2018-06-10T16:13:47.931Z,17.73
2018-06-10T16:16:16.337Z,17.97
2018-06-10T16:18:44.792Z,13.40
2018-06-10T16:21:13.484Z,14.57
2018-06-10T16:23:42.001Z,14.73
2018-06-10T16:26:10.422Z,13.83
2018-06-10T16:28:38.821Z,12.00
2018-06-10T16:31:07.212Z,13.60
2018-06-10T16:33:35.632Z,16.63
2018-06-10T16:36:04.165Z,15.40
2018-06-10T16:38:32.611Z,12.90
2018-06-10T16:41:01.324Z,12.80
2018-06-10T16:43:29.840Z,13.47
2018-06-10T16:45:58.260Z,18.70
2018-06-10T16:48:27.065Z,12.53
2018-06-10T16:50:55.478Z,11.03
2018-06-10T16:53:23.892Z,10.07
2018-06-10T16:55:52.559Z,15.93
2018-06-10T16:58:21.093Z,12.43
2018-06-10T17:00:49.601Z,11.57
2018-06-10T17:03:18.005Z,12.30
2018-06-10T17:05:46.697Z,13.13
2018-06-10T17:08:15.258Z,16.43
2018-06-10T17:10:44.360Z,15.33
2018-06-10T17:13:13.802Z,16.10
2018-06-10T17:15:42.542Z,12.80
2018-06-10T17:18:10.952Z,9.70
2018-06-10T17:20:39.389Z,15.63
2018-06-10T17:23:07.841Z,10.77
2018-06-10T17:25:36.229Z,12.53
2018-06-10T17:28:04.768Z,13.80
2018-06-10T17:30:33.203Z,13.73
2018-06-10T17:33:01.623Z,11.80
2018-06-10T17:35:29.817Z,11.03
2018-06-10T17:37:58.253Z,13.93
2018-06-10T17:40:26.854Z,10.63
2018-06-10T17:42:55.493Z,9.23
2018-06-10T17:45:23.917Z,9.40
2018-06-10T17:47:52.397Z,8.63
2018-06-10T17:50:20.961Z,10.53
2018-06-10T17:52:49.395Z,12.50
2018-06-10T17:55:18.053Z,12.17
2018-06-10T17:57:46.457Z,11.70
2018-06-10T18:00:14.889Z,13.17
2018-06-10T18:02:43.625Z,11.47
2018-06-10T18:05:12.029Z,16.90
2018-06-10T18:07:40.501Z,13.43
2018-06-10T18:10:09.274Z,15.00
2018-06-10T18:12:37.928Z,11.83
2018-06-10T18:15:06.450Z,19.33
2018-06-10T18:17:35.445Z,11.57
2018-06-10T18:20:04.157Z,10.83
2018-06-10T18:22:33.073Z,10.63
2018-06-10T18:25:01.183Z,14.53
2018-06-10T18:27:29.625Z,16.30
2018-06-10T18:29:57.780Z,8.73
2018-06-10T18:32:26.204Z,10.90
2018-06-10T18:34:54.727Z,13.40
2018-06-10T18:37:22.895Z,11.67
2018-06-10T18:39:51.763Z,10.87
2018-06-10T18:42:20.166Z,11.93
2018-06-10T18:44:48.608Z,14.20
2018-06-10T18:47:17.885Z,15.67
2018-06-10T18:49:46.349Z,10.97
2018-06-10T18:52:14.796Z,13.80
2018-06-10T18:54:43.220Z,12.23
2018-06-10T18:57:11.674Z,11.53
2018-06-10T18:59:40.110Z,13.07
2018-06-10T19:02:09.480Z,10.80
2018-06-10T19:04:38.440Z,12.00
2018-06-10T19:07:06.983Z,17.63
2018-06-10T19:09:35.371Z,12.33
2018-06-10T19:12:03.904Z,12.13
2018-06-10T19:14:32.452Z,15.77
2018-06-10T19:17:00.955Z,11.30
2018-06-10T19:19:29.429Z,14.50
2018-06-10T19:21:57.861Z,12.83
2018-06-10T19:24:26.302Z,11.20
2018-06-10T19:26:54.707Z,12.03
2018-06-10T19:29:24.094Z,14.60
2018-06-10T19:31:52.515Z,11.47
2018-06-10T19:34:20.955Z,12.70
2018-06-10T19:36:49.543Z,14.03
2018-06-10T19:39:17.969Z,12.13
2018-06-10T19:41:46.476Z,12.77
2018-06-10T19:44:15.112Z,16.67
2018-06-10T19:46:43.612Z,12.00
2018-06-10T19:49:12.112Z,14.93
2018-06-10T19:51:40.573Z,13.13
2018-06-10T19:54:09.159Z,18.90
2018-06-10T19:56:37.825Z,14.50
2018-06-10T19:59:06.290Z,17.90
2018-06-10T20:01:34.853Z,21.00
2018-06-10T20:04:03.820Z,16.70
2018-06-10T20:06:32.250Z,14.73
2018-06-10T20:09:00.776Z,15.47
2018-06-10T20:11:29.289Z,18.93
2018-06-10T20:13:57.869Z,14.87
2018-06-10T20:16:26.320Z,15.43
2018-06-10T20:18:54.740Z,15.30
2018-06-10T20:21:23.401Z,15.20
2018-06-10T20:23:51.562Z,19.33
2018-06-10T20:26:20.077Z,20.10
2018-06-10T20:28:48.489Z,16.70
2018-06-10T20:31:17.086Z,18.07
2018-06-10T20:33:45.492Z,16.13
2018-06-10T20:36:14.089Z,18.40
2018-06-10T20:38:42.657Z,17.77
2018-06-10T20:41:11.198Z,16.77
2018-06-10T20:43:39.659Z,17.33
2018-06-10T20:46:08.116Z,19.27
2018-06-10T20:48:36.581Z,19.83
2018-06-10T20:51:05.008Z,17.43
2018-06-10T20:53:33.461Z,16.10
2018-06-10T20:56:01.981Z,18.63
2018-06-10T20:58:30.903Z,18.93
2018-06-10T21:00:59.319Z,20.50
2018-06-10T21:03:27.732Z,19.27
2018-06-10T21:05:56.543Z,17.67
2018-06-10T21:08:24.994Z,17.13
2018-06-10T21:10:53.490Z,17.53
2018-06-10T21:13:22.078Z,20.63
2018-06-10T21:15:50.529Z,18.37
2018-06-10T21:18:18.963Z,18.73
2018-06-10T21:20:47.656Z,20.50
2018-06-10T21:23:16.065Z,21.70
2018-06-10T21:25:44.620Z,21.83
2018-06-10T21:28:13.017Z,18.53
2018-06-10T21:30:41.444Z,19.57
2018-06-10T21:33:10.221Z,20.73
2018-06-10T21:35:38.670Z,21.33
2018-06-10T21:38:07.072Z,17.57
2018-06-10T21:40:35.596Z,20.03
2018-06-10T21:43:03.761Z,17.80
2018-06-10T21:45:32.153Z,19.00
2018-06-10T21:48:00.578Z,23.93
2018-06-10T21:50:29.013Z,19.63
2018-06-10T21:52:57.408Z,20.60
2018-06-10T21:55:26.006Z,21.23
2018-06-10T21:57:54.445Z,19.97
2018-06-10T22:00:24.909Z,20.47
2018-06-10T22:02:53.641Z,23.67
2018-06-10T22:05:22.364Z,19.87
2018-06-10T22:07:50.796Z,20.80
2018-06-10T22:10:19.208Z,18.57
2018-06-10T22:12:47.620Z,25.00
2018-06-10T22:15:16.255Z,23.37
2018-06-10T22:17:45.045Z,29.40
2018-06-10T22:20:13.678Z,20.47
2018-06-10T22:22:42.105Z,22.00
2018-06-10T22:25:10.788Z,20.33
2018-06-10T22:27:39.281Z,22.30
2018-06-10T22:30:07.685Z,28.23
2018-06-10T22:32:36.087Z,23.53
2018-06-10T22:35:04.528Z,21.20
2018-06-10T22:37:32.950Z,25.57
2018-06-10T22:40:01.485Z,24.80
2018-06-10T22:42:29.964Z,24.73
2018-06-10T22:44:58.370Z,27.87
2018-06-10T22:47:27.042Z,23.70
2018-06-10T22:49:55.466Z,22.83
2018-06-10T22:52:23.840Z,26.30
2018-06-10T22:54:52.420Z,22.17
2018-06-10T22:57:20.822Z,31.50
2018-06-10T22:59:49.218Z,28.60
2018-06-10T23:02:17.879Z,24.57
2018-06-10T23:04:46.303Z,25.30
2018-06-10T23:07:15.835Z,23.73
2018-06-10T23:09:44.544Z,23.70
2018-06-10T23:12:12.940Z,28.17
2018-06-10T23:14:41.632Z,26.07
2018-06-10T23:17:10.136Z,24.27
2018-06-10T23:19:38.557Z,25.93
2018-06-10T23:22:06.980Z,28.33
2018-06-10T23:24:35.409Z,30.50
2018-06-10T23:27:03.866Z,31.13
2018-06-10T23:29:32.266Z,32.07
2018-06-10T23:32:00.839Z,26.70
2018-06-10T23:34:29.497Z,28.83
2018-06-10T23:36:57.913Z,26.10
2018-06-10T23:39:26.305Z,23.60
2018-06-10T23:41:54.856Z,24.10
2018-06-10T23:44:23.380Z,26.47
2018-06-10T23:46:51.778Z,26.03
2018-06-10T23:49:20.646Z,22.17
2018-06-10T23:51:49.042Z,25.83
2018-06-10T23:54:17.414Z,22.20
2018-06-10T23:56:45.976Z,22.73
2018-06-10T23:59:14.356Z,22.43
